Time;durP1;ratioP1;P1;durP2;ratioP2;P2;SDS_P1;SDS_P2;PMS_P1;PMS_P2;Temp;Humidity;BMP_temperature;BMP_pressure;BME280_temperature;BME280_humidity;BME280_pressure;Samples;Min_cycle;Max_cycle;Signal;HPM_P1;HPM_P2
2023/10/04 00:00:30;;;;;;;10.40;3.22;;;;;;;;;;2099508;28;20028;-66
2023/10/04 00:01:50;;;;;;;5.50;2.72;;;;;;;;;;2103352;28;20024;-67
2023/10/04 00:03:09;;;;;;;5.13;2.78;;;;;;;;;;2103539;28;20024;-67
2023/10/04 00:04:29;;;;;;;6.60;3.50;;;;;;;;;;2104155;28;20111;-66
2023/10/04 00:05:48;;;;;;;14.43;3.60;;;;;;;;;;2103623;28;20431;-67
2023/10/04 00:07:07;;;;;;;11.02;3.55;;;;;;;;;;2105065;28;20028;-67
2023/10/04 00:08:26;;;;;;;4.45;3.17;;;;;;;;;;2102715;28;20404;-67
2023/10/04 00:09:45;;;;;;;10.07;3.25;;;;;;;;;;2101613;28;20423;-67
2023/10/04 00:11:04;;;;;;;8.95;2.95;;;;;;;;;;2102395;28;20032;-66
2023/10/04 00:12:23;;;;;;;6.82;2.88;;;;;;;;;;2102594;28;20032;-66
2023/10/04 00:13:44;;;;;;;7.22;3.00;;;;;;;;;;2101780;28;20024;-66
2023/10/04 00:15:04;;;;;;;5.47;3.10;;;;;;;;;;2101569;28;20143;-66
2023/10/04 00:16:23;;;;;;;8.20;2.88;;;;;;;;;;2101752;28;20037;-66
2023/10/04 00:17:43;;;;;;;9.90;3.90;;;;;;;;;;2100754;28;20032;-67
2023/10/04 00:19:05;;;;;;;8.38;3.42;;;;;;;;;;2102722;28;20028;-65
2023/10/04 00:20:32;;;;;;;12.60;3.42;;;;;;;;;;2102267;28;20036;-66
2023/10/04 00:21:51;;;;;;;10.07;3.45;;;;;;;;;;2102107;28;20031;-65
2023/10/04 00:23:10;;;;;;;10.23;3.35;;;;;;;;;;2100790;28;20388;-65
2023/10/04 00:24:31;;;;;;;7.07;3.63;;;;;;;;;;2103862;28;20048;-66
2023/10/04 00:25:50;;;;;;;8.52;3.10;;;;;;;;;;2103258;28;20024;-66
2023/10/04 00:27:09;;;;;;;8.00;3.10;;;;;;;;;;2102966;28;20024;-66
2023/10/04 00:28:29;;;;;;;6.47;3.30;;;;;;;;;;2103389;28;20524;-66
2023/10/04 00:29:48;;;;;;;13.50;3.47;;;;;;;;;;2104288;28;20021;-66
2023/10/04 00:31:07;;;;;;;5.30;3.10;;;;;;;;;;2096947;28;20025;-66
2023/10/04 00:32:26;;;;;;;5.47;3.17;;;;;;;;;;2101441;28;20107;-67
2023/10/04 00:33:49;;;;;;;7.00;3.22;;;;;;;;;;2099473;28;20024;-65
2023/10/04 00:35:15;;;;;;;7.45;3.10;;;;;;;;;;2105897;28;20419;-66
2023/10/04 00:36:34;;;;;;;11.38;3.85;;;;;;;;;;2105647;28;20032;-66
2023/10/04 00:37:57;;;;;;;11.45;3.50;;;;;;;;;;2085444;28;20037;-66
2023/10/04 00:39:17;;;;;;;9.85;3.47;;;;;;;;;;2086378;28;20191;-66
2023/10/04 00:40:38;;;;;;;10.13;3.67;;;;;;;;;;2084370;28;20036;-66
2023/10/04 00:41:57;;;;;;;6.88;3.10;;;;;;;;;;2086840;28;20373;-66
2023/10/04 00:43:19;;;;;;;6.70;3.47;;;;;;;;;;2088380;28;20033;-66
2023/10/04 00:44:37;;;;;;;10.80;3.30;;;;;;;;;;2085838;28;20018;-66
2023/10/04 00:45:57;;;;;;;8.85;3.72;;;;;;;;;;2085395;28;20477;-66
2023/10/04 00:47:16;;;;;;;10.27;3.42;;;;;;;;;;2088397;28;20032;-66
2023/10/04 00:48:36;;;;;;;8.65;3.60;;;;;;;;;;2088223;28;20033;-66
2023/10/04 00:49:55;;;;;;;6.13;3.03;;;;;;;;;;2088329;28;20021;-66
2023/10/04 00:51:15;;;;;;;8.25;3.25;;;;;;;;;;2088522;28;20041;-67
2023/10/04 00:52:34;;;;;;;5.68;3.17;;;;;;;;;;2087431;28;20064;-66
2023/10/04 00:53:55;;;;;;;7.60;3.50;;;;;;;;;;2089891;28;20025;-67
2023/10/04 00:55:16;;;;;;;11.02;3.22;;;;;;;;;;2089235;28;20033;-66
2023/10/04 00:56:38;;;;;;;8.13;3.45;;;;;;;;;;2087241;28;20064;-66
2023/10/04 00:57:59;;;;;;;8.63;3.58;;;;;;;;;;2086639;28;20025;-66
2023/10/04 00:59:18;;;;;;;11.00;4.05;;;;;;;;;;2087488;28;20481;-66
2023/10/04 01:00:41;;;;;;;8.32;3.40;;;;;;;;;;2088130;28;20020;-66
2023/10/04 01:02:00;;;;;;;11.05;3.95;;;;;;;;;;2086525;28;20029;-66
2023/10/04 01:03:20;;;;;;;9.05;4.05;;;;;;;;;;2086391;28;20025;-66
2023/10/04 01:04:39;;;;;;;9.43;3.58;;;;;;;;;;2087625;28;20143;-67
2023/10/04 01:06:00;;;;;;;7.93;3.65;;;;;;;;;;2084344;28;20041;-66
2023/10/04 01:07:21;;;;;;;11.73;4.07;;;;;;;;;;2086713;28;20025;-66
2023/10/04 01:08:41;;;;;;;7.95;3.58;;;;;;;;;;2088724;28;20539;-66
2023/10/04 01:09:59;;;;;;;9.10;4.00;;;;;;;;;;2086836;28;20033;-66
2023/10/04 01:11:20;;;;;;;10.02;3.70;;;;;;;;;;2087432;28;20417;-66
2023/10/04 01:12:40;;;;;;;10.55;3.60;;;;;;;;;;2088435;28;20029;-66
2023/10/04 01:14:09;;;;;;;9.95;3.67;;;;;;;;;;2085464;28;20025;-66
2023/10/04 01:16:51;;;;;;;12.30;4.25;;;;;;;;;;2086081;28;20037;-66
2023/10/04 01:18:15;;;;;;;8.30;3.92;;;;;;;;;;2087543;28;20021;-66
2023/10/04 01:19:34;;;;;;;8.27;3.83;;;;;;;;;;2087821;28;20029;-66
2023/10/04 01:20:55;;;;;;;9.52;3.95;;;;;;;;;;2088173;28;20673;-65
2023/10/04 01:22:15;;;;;;;8.48;4.00;;;;;;;;;;2088976;28;20025;-66
2023/10/04 01:23:33;;;;;;;10.38;3.72;;;;;;;;;;2089103;28;20389;-66
2023/10/04 01:24:53;;;;;;;12.65;3.95;;;;;;;;;;2088430;28;20474;-66
2023/10/04 01:26:25;;;;;;;6.82;3.30;;;;;;;;;;2087038;28;20036;-66
2023/10/04 01:27:44;;;;;;;11.43;4.15;;;;;;;;;;2088497;28;20047;-66
2023/10/04 01:29:11;;;;;;;6.72;4.35;;;;;;;;;;2087711;28;20120;-66
2023/10/04 01:30:31;;;;;;;10.68;3.75;;;;;;;;;;2085844;28;20037;-66
2023/10/04 01:31:51;;;;;;;13.73;4.22;;;;;;;;;;2082267;28;20029;-66
2023/10/04 01:33:16;;;;;;;11.20;3.42;;;;;;;;;;2083696;28;20021;-66
2023/10/04 01:34:36;;;;;;;10.63;3.47;;;;;;;;;;2087412;28;20017;-66
2023/10/04 01:35:56;;;;;;;9.27;3.70;;;;;;;;;;2086047;28;20479;-66
2023/10/04 01:37:15;;;;;;;10.07;3.55;;;;;;;;;;2096818;28;20036;-66
2023/10/04 01:38:35;;;;;;;8.55;3.75;;;;;;;;;;2102667;28;20017;-66
2023/10/04 01:39:54;;;;;;;11.20;3.72;;;;;;;;;;2103863;28;20504;-66
2023/10/04 01:41:14;;;;;;;6.65;3.80;;;;;;;;;;2104410;28;20032;-66
2023/10/04 01:42:33;;;;;;;7.97;3.42;;;;;;;;;;2104350;28;20492;-66
2023/10/04 01:43:53;;;;;;;6.25;3.42;;;;;;;;;;2103175;28;20489;-66
2023/10/04 01:45:15;;;;;;;9.52;3.88;;;;;;;;;;2102441;28;20024;-66
2023/10/04 01:46:36;;;;;;;9.25;3.65;;;;;;;;;;2105623;28;20039;-66
2023/10/04 01:47:55;;;;;;;9.15;3.55;;;;;;;;;;2102883;28;20391;-66
2023/10/04 01:49:14;;;;;;;9.75;3.17;;;;;;;;;;2104914;28;20377;-66
2023/10/04 01:50:33;;;;;;;10.82;3.40;;;;;;;;;;2105033;28;20389;-66
2023/10/04 01:51:53;;;;;;;9.38;3.63;;;;;;;;;;2101992;28;20028;-66
2023/10/04 01:53:12;;;;;;;11.25;3.78;;;;;;;;;;2104161;28;20028;-66
2023/10/04 01:54:30;;;;;;;10.00;3.50;;;;;;;;;;2101986;28;20028;-66
2023/10/04 01:55:50;;;;;;;12.00;4.03;;;;;;;;;;2104269;28;20381;-66
2023/10/04 01:57:08;;;;;;;7.95;3.33;;;;;;;;;;2104501;28;20036;-66
2023/10/04 01:58:27;;;;;;;10.15;3.20;;;;;;;;;;2102741;28;20501;-66
2023/10/04 01:59:46;;;;;;;8.02;3.20;;;;;;;;;;2103737;28;20032;-66
2023/10/04 02:01:08;;;;;;;7.35;3.22;;;;;;;;;;2104011;28;20040;-66
2023/10/04 02:02:27;;;;;;;6.63;3.40;;;;;;;;;;2100164;28;20032;-66
2023/10/04 02:03:46;;;;;;;10.50;3.60;;;;;;;;;;2093729;28;20331;-66
2023/10/04 02:05:10;;;;;;;8.30;3.47;;;;;;;;;;2098168;28;20118;-66
2023/10/04 02:06:29;;;;;;;7.53;3.05;;;;;;;;;;2100891;28;20520;-66
2023/10/04 02:07:48;;;;;;;8.38;3.25;;;;;;;;;;2101075;28;20421;-66
2023/10/04 02:09:11;;;;;;;10.40;3.58;;;;;;;;;;2100658;28;20127;-66
2023/10/04 02:10:30;;;;;;;8.48;3.28;;;;;;;;;;2101649;28;20024;-66
2023/10/04 02:11:49;;;;;;;7.82;3.20;;;;;;;;;;2101412;28;20020;-66
2023/10/04 02:13:14;;;;;;;8.20;2.97;;;;;;;;;;2103009;28;20024;-66
2023/10/04 02:14:36;;;;;;;7.22;3.28;;;;;;;;;;2102269;28;20028;-66
2023/10/04 02:15:57;;;;;;;11.48;3.28;;;;;;;;;;2102137;28;20024;-66
2023/10/04 02:17:17;;;;;;;6.47;3.13;;;;;;;;;;2103368;28;20033;-67
2023/10/04 02:18:36;;;;;;;9.93;3.60;;;;;;;;;;2103186;28;20024;-66
2023/10/04 02:19:55;;;;;;;7.63;2.53;;;;;;;;;;2103126;28;20032;-66
2023/10/04 02:21:16;;;;;;;9.60;3.08;;;;;;;;;;2098401;28;20044;-66
2023/10/04 02:22:36;;;;;;;8.35;3.42;;;;;;;;;;2102582;28;20028;-66
2023/10/04 02:23:56;;;;;;;7.78;3.58;;;;;;;;;;2102016;28;20032;-66
2023/10/04 02:25:15;;;;;;;11.48;2.83;;;;;;;;;;2102966;28;20041;-66
2023/10/04 02:26:35;;;;;;;8.32;3.20;;;;;;;;;;2103480;28;20493;-66
2023/10/04 02:28:00;;;;;;;8.00;3.30;;;;;;;;;;2102465;28;20658;-66
2023/10/04 02:29:20;;;;;;;9.95;3.30;;;;;;;;;;2103782;28;20051;-66
2023/10/04 02:30:39;;;;;;;5.32;3.08;;;;;;;;;;2102560;28;20020;-66
2023/10/04 02:31:58;;;;;;;9.35;3.10;;;;;;;;;;2102047;28;20036;-66
2023/10/04 02:33:17;;;;;;;8.18;2.65;;;;;;;;;;2105674;28;20021;-66
2023/10/04 02:34:37;;;;;;;6.63;2.40;;;;;;;;;;2105020;28;20056;-66
2023/10/04 02:35:57;;;;;;;6.80;3.08;;;;;;;;;;2103017;28;21015;-66
2023/10/04 02:37:15;;;;;;;13.23;3.67;;;;;;;;;;2100601;28;20052;-65
2023/10/04 02:38:36;;;;;;;10.13;3.10;;;;;;;;;;2104013;28;20107;-66
2023/10/04 02:39:57;;;;;;;8.20;3.03;;;;;;;;;;2102075;28;20024;-66
2023/10/04 02:41:16;;;;;;;6.88;3.13;;;;;;;;;;2101727;28;20031;-65
2023/10/04 02:42:35;;;;;;;6.18;2.78;;;;;;;;;;2103533;28;20500;-65
2023/10/04 02:43:54;;;;;;;6.97;3.58;;;;;;;;;;2102694;28;20530;-65
2023/10/04 02:45:19;;;;;;;6.75;2.90;;;;;;;;;;2102693;28;20477;-65
2023/10/04 02:46:41;;;;;;;6.78;2.85;;;;;;;;;;2102233;28;20059;-65
2023/10/04 02:48:00;;;;;;;7.85;3.10;;;;;;;;;;2103847;28;20055;-65
2023/10/04 02:49:20;;;;;;;7.00;2.90;;;;;;;;;;2102423;28;20048;-65
2023/10/04 02:50:40;;;;;;;9.35;3.17;;;;;;;;;;2103251;28;20020;-65
2023/10/04 02:52:00;;;;;;;9.50;3.28;;;;;;;;;;2102123;28;20385;-65
2023/10/04 02:53:24;;;;;;;14.10;3.30;;;;;;;;;;2102215;28;20473;-65
2023/10/04 02:54:43;;;;;;;10.20;3.40;;;;;;;;;;2098036;28;20016;-65
2023/10/04 02:56:06;;;;;;;10.45;3.30;;;;;;;;;;2100917;28;20024;-65
2023/10/04 02:57:25;;;;;;;;;;;;;;;;;;2105165;28;20032;-65
2023/10/04 02:58:44;;;;;;;6.10;3.33;;;;;;;;;;2103787;28;20360;-69
2023/10/04 03:00:11;;;;;;;9.63;2.97;;;;;;;;;;2098972;28;20056;-65
2023/10/04 03:01:30;;;;;;;7.65;3.17;;;;;;;;;;2097678;28;20083;-65
2023/10/04 03:02:50;;;;;;;5.93;3.67;;;;;;;;;;2101339;28;20024;-65
2023/10/04 03:04:11;;;;;;;12.43;3.63;;;;;;;;;;2099659;28;20043;-65
2023/10/04 03:05:31;;;;;;;15.25;3.47;;;;;;;;;;2099250;28;20032;-66
2023/10/04 03:06:51;;;;;;;9.40;3.53;;;;;;;;;;2098458;28;20405;-65
2023/10/04 03:08:11;;;;;;;10.98;3.97;;;;;;;;;;2100438;28;20040;-65
2023/10/04 03:09:30;;;;;;;10.60;3.45;;;;;;;;;;2100688;28;20028;-65
2023/10/04 03:10:50;;;;;;;9.90;3.90;;;;;;;;;;2098681;28;20028;-65
2023/10/04 03:12:10;;;;;;;9.10;3.60;;;;;;;;;;2100683;28;20493;-65
2023/10/04 03:13:32;;;;;;;7.07;3.50;;;;;;;;;;2101441;28;20032;-65
2023/10/04 03:14:51;;;;;;;8.80;3.47;;;;;;;;;;2099613;28;20032;-65
2023/10/04 03:16:10;;;;;;;8.38;3.97;;;;;;;;;;2101261;28;20020;-66
2023/10/04 03:17:29;;;;;;;11.23;4.00;;;;;;;;;;2099400;28;20032;-65
2023/10/04 03:18:49;;;;;;;8.35;3.78;;;;;;;;;;2101824;28;20123;-65
2023/10/04 03:20:19;;;;;;;11.07;3.58;;;;;;;;;;2102698;28;20118;-65
2023/10/04 03:21:44;;;;;;;8.00;3.75;;;;;;;;;;2100031;28;20036;-65
2023/10/04 03:23:12;;;;;;;13.25;4.03;;;;;;;;;;2099322;28;20477;-65
2023/10/04 03:24:32;;;;;;;11.32;3.70;;;;;;;;;;2100570;28;20532;-65
2023/10/04 03:25:56;;;;;;;10.00;4.43;;;;;;;;;;2099507;28;20036;-66
2023/10/04 03:27:16;;;;;;;7.78;3.88;;;;;;;;;;2097265;28;20077;-68
2023/10/04 03:28:37;;;;;;;7.75;3.65;;;;;;;;;;2100188;28;20443;-65
2023/10/04 03:29:57;;;;;;;11.13;4.20;;;;;;;;;;2099184;28;20028;-65
2023/10/04 03:31:18;;;;;;;8.40;4.13;;;;;;;;;;2101092;28;20479;-65
2023/10/04 03:32:37;;;;;;;9.55;3.25;;;;;;;;;;2102770;28;20025;-66
2023/10/04 03:33:56;;;;;;;10.18;3.67;;;;;;;;;;2096204;28;20024;-65
2023/10/04 03:35:15;;;;;;;11.98;3.97;;;;;;;;;;2096342;28;20489;-67
2023/10/04 03:36:34;;;;;;;10.73;3.35;;;;;;;;;;2097167;28;20627;-65
2023/10/04 03:38:07;;;;;;;12.85;3.90;;;;;;;;;;2097624;28;20044;-66
2023/10/04 03:39:28;;;;;;;13.15;3.67;;;;;;;;;;2097988;28;20033;-65
2023/10/04 03:40:48;;;;;;;8.40;3.60;;;;;;;;;;2094878;28;20032;-65
2023/10/04 03:42:10;;;;;;;7.75;3.40;;;;;;;;;;2095071;28;20036;-65
2023/10/04 03:43:30;;;;;;;11.57;3.65;;;;;;;;;;2097719;28;20036;-65
2023/10/04 03:44:49;;;;;;;12.98;3.53;;;;;;;;;;2098129;28;20028;-65
2023/10/04 03:46:17;;;;;;;9.15;3.00;;;;;;;;;;2095960;28;20036;-65
2023/10/04 03:47:37;;;;;;;8.35;3.78;;;;;;;;;;2101616;28;20032;-65
2023/10/04 03:48:58;;;;;;;9.48;3.63;;;;;;;;;;2100608;28;20028;-65
2023/10/04 03:50:17;;;;;;;11.52;3.58;;;;;;;;;;2100631;28;20711;-65
2023/10/04 03:51:37;;;;;;;7.13;2.78;;;;;;;;;;2100634;28;20943;-65
2023/10/04 03:52:57;;;;;;;12.15;3.30;;;;;;;;;;2099132;28;20024;-65
2023/10/04 03:54:16;;;;;;;7.05;3.15;;;;;;;;;;2099406;28;20036;-65
2023/10/04 03:55:36;;;;;;;9.15;3.45;;;;;;;;;;2099980;28;20032;-65
2023/10/04 03:56:55;;;;;;;7.85;3.17;;;;;;;;;;2100953;28;20028;-65
2023/10/04 03:58:15;;;;;;;14.70;3.78;;;;;;;;;;2100803;28;20040;-66
2023/10/04 03:59:34;;;;;;;7.10;2.95;;;;;;;;;;2100024;28;20040;-66
2023/10/04 04:00:53;;;;;;;7.18;3.05;;;;;;;;;;2100435;28;20051;-65
2023/10/04 04:02:12;;;;;;;10.38;3.28;;;;;;;;;;2101420;28;20036;-65
2023/10/04 04:03:31;;;;;;;10.45;3.67;;;;;;;;;;2101535;28;20032;-65
2023/10/04 04:04:50;;;;;;;12.00;3.40;;;;;;;;;;2099475;28;20035;-65
2023/10/04 04:06:11;;;;;;;10.48;3.22;;;;;;;;;;2099565;28;20036;-65
2023/10/04 04:07:31;;;;;;;10.95;3.63;;;;;;;;;;2100196;28;20036;-65
2023/10/04 04:08:50;;;;;;;8.63;3.15;;;;;;;;;;2100718;28;20064;-65
2023/10/04 04:10:14;;;;;;;6.30;3.20;;;;;;;;;;2102939;28;20040;-65
2023/10/04 04:11:33;;;;;;;8.77;3.38;;;;;;;;;;2100715;28;20020;-65
2023/10/04 04:12:52;;;;;;;13.55;3.90;;;;;;;;;;2101628;28;20032;-65
2023/10/04 04:14:11;;;;;;;7.25;3.33;;;;;;;;;;2100728;28;20035;-65
2023/10/04 04:15:33;;;;;;;7.95;3.20;;;;;;;;;;2098369;28;20036;-65
2023/10/04 04:16:55;;;;;;;8.70;3.28;;;;;;;;;;2101869;28;20031;-65
2023/10/04 04:18:20;;;;;;;4.75;3.03;;;;;;;;;;2102054;28;20036;-65
2023/10/04 04:19:39;;;;;;;10.60;3.67;;;;;;;;;;2102198;28;20028;-65
2023/10/04 04:20:58;;;;;;;10.45;3.15;;;;;;;;;;2101962;28;20023;-64
2023/10/04 04:22:23;;;;;;;5.38;3.15;;;;;;;;;;2101747;28;20076;-64
2023/10/04 04:23:42;;;;;;;10.40;3.08;;;;;;;;;;2102244;28;20032;-64
2023/10/04 04:25:03;;;;;;;10.27;2.63;;;;;;;;;;2100840;28;20075;-64
2023/10/04 04:26:23;;;;;;;6.53;3.20;;;;;;;;;;2102940;28;20028;-64
2023/10/04 04:27:45;;;;;;;7.32;3.10;;;;;;;;;;2102420;28;20036;-64
2023/10/04 04:29:04;;;;;;;7.22;3.30;;;;;;;;;;2101140;28;20514;-64
2023/10/04 04:30:28;;;;;;;7.20;2.58;;;;;;;;;;2099293;28;20496;-64
2023/10/04 04:31:48;;;;;;;10.50;3.15;;;;;;;;;;2103088;28;20024;-64
2023/10/04 04:33:07;;;;;;;11.10;3.08;;;;;;;;;;2101426;28;20028;-64
2023/10/04 04:34:26;;;;;;;13.52;3.83;;;;;;;;;;2100239;28;20054;-64
2023/10/04 04:37:04;;;;;;;5.70;2.72;;;;;;;;;;2100405;28;20629;-63
2023/10/04 04:38:24;;;;;;;6.22;3.20;;;;;;;;;;2100294;28;20032;-64
2023/10/04 04:39:43;;;;;;;7.55;2.70;;;;;;;;;;2100064;28;20036;-64
2023/10/04 04:41:05;;;;;;;7.00;2.60;;;;;;;;;;2101050;28;20500;-64
2023/10/04 04:42:35;;;;;;;9.98;3.05;;;;;;;;;;2100451;28;20040;-63
2023/10/04 04:43:55;;;;;;;11.02;2.92;;;;;;;;;;2100962;28;20036;-64
2023/10/04 04:45:16;;;;;;;8.20;3.03;;;;;;;;;;2099997;28;20028;-64
2023/10/04 04:46:35;;;;;;;6.43;3.40;;;;;;;;;;2095338;28;20115;-64
2023/10/04 04:47:55;;;;;;;4.63;2.67;;;;;;;;;;2100777;28;20059;-64
2023/10/04 04:49:15;;;;;;;5.25;2.60;;;;;;;;;;2101793;28;20053;-63
2023/10/04 04:50:35;;;;;;;11.13;3.40;;;;;;;;;;2099425;28;20052;-64
2023/10/04 04:51:55;;;;;;;5.68;1.98;;;;;;;;;;2102419;28;20049;-63
2023/10/04 04:53:18;;;;;;;7.72;2.40;;;;;;;;;;2101983;28;20028;-63
2023/10/04 04:54:37;;;;;;;4.53;2.33;;;;;;;;;;2101539;28;20036;-63
2023/10/04 04:55:56;;;;;;;5.18;2.05;;;;;;;;;;2102546;28;20111;-63
2023/10/04 04:57:15;;;;;;;7.07;3.00;;;;;;;;;;2101114;28;20456;-66
2023/10/04 04:58:34;;;;;;;11.15;2.85;;;;;;;;;;2098993;28;20493;-62
2023/10/04 04:59:56;;;;;;;6.85;2.42;;;;;;;;;;2100375;28;20040;-63
2023/10/04 05:01:15;;;;;;;8.35;2.50;;;;;;;;;;2100471;28;20519;-63
2023/10/04 05:02:34;;;;;;;8.32;2.72;;;;;;;;;;2101388;28;20118;-63
2023/10/04 05:03:53;;;;;;;6.97;2.55;;;;;;;;;;2097930;28;20032;-63
2023/10/04 05:05:12;;;;;;;16.15;2.88;;;;;;;;;;2101230;28;20551;-63
2023/10/04 05:06:32;;;;;;;7.38;2.15;;;;;;;;;;2098168;28;20044;-63
2023/10/04 05:07:51;;;;;;;10.30;2.45;;;;;;;;;;2101316;28;20055;-63
2023/10/04 05:09:10;;;;;;;5.85;2.13;;;;;;;;;;2099974;28;20039;-63
2023/10/04 05:10:37;;;;;;;8.05;2.35;;;;;;;;;;2101592;28;20131;-62
2023/10/04 05:11:55;;;;;;;7.30;2.30;;;;;;;;;;2101448;28;20033;-62
2023/10/04 05:13:18;;;;;;;5.53;2.88;;;;;;;;;;2100431;28;20040;-63
2023/10/04 05:14:37;;;;;;;7.63;2.45;;;;;;;;;;2100935;28;20491;-65
2023/10/04 05:15:56;;;;;;;5.18;2.45;;;;;;;;;;2102039;28;20481;-62
2023/10/04 05:17:15;;;;;;;6.85;2.00;;;;;;;;;;2101047;28;20036;-63
2023/10/04 05:18:34;;;;;;;9.75;2.72;;;;;;;;;;2101524;28;20036;-63
2023/10/04 05:19:53;;;;;;;10.40;2.65;;;;;;;;;;2100960;28;20040;-63
2023/10/04 05:21:14;;;;;;;6.10;2.40;;;;;;;;;;2101384;28;20128;-63
2023/10/04 05:22:33;;;;;;;8.20;2.35;;;;;;;;;;2100554;28;20036;-63
2023/10/04 05:23:55;;;;;;;5.80;1.65;;;;;;;;;;2100060;28;20024;-63
2023/10/04 05:25:14;;;;;;;6.82;2.08;;;;;;;;;;2101018;28;20040;-62
2023/10/04 05:26:35;;;;;;;5.60;2.20;;;;;;;;;;2101352;28;20032;-63
2023/10/04 05:28:03;;;;;;;7.00;2.17;;;;;;;;;;2099860;28;20061;-63
2023/10/04 05:29:22;;;;;;;5.05;1.70;;;;;;;;;;2100931;28;20485;-63
2023/10/04 05:30:43;;;;;;;8.27;2.30;;;;;;;;;;2101440;28;20073;-63
2023/10/04 05:32:02;;;;;;;7.47;2.10;;;;;;;;;;2099532;28;20032;-63
2023/10/04 05:33:22;;;;;;;7.32;2.10;;;;;;;;;;2099924;28;20504;-63
2023/10/04 05:34:42;;;;;;;6.47;2.25;;;;;;;;;;2099945;28;20040;-63
2023/10/04 05:36:02;;;;;;;7.88;2.10;;;;;;;;;;2100546;28;20032;-63
2023/10/04 05:37:22;;;;;;;9.07;2.33;;;;;;;;;;2099994;28;20040;-63
2023/10/04 05:38:41;;;;;;;6.18;2.15;;;;;;;;;;2095861;28;20016;-63
2023/10/04 05:39:59;;;;;;;4.32;2.03;;;;;;;;;;2099240;28;20040;-62
2023/10/04 05:41:19;;;;;;;6.53;1.92;;;;;;;;;;2099093;28;20065;-63
2023/10/04 05:42:38;;;;;;;5.22;2.08;;;;;;;;;;2101004;28;20427;-64
2023/10/04 05:43:58;;;;;;;5.03;2.20;;;;;;;;;;2097156;28;20108;-64
2023/10/04 05:45:17;;;;;;;7.15;1.83;;;;;;;;;;2099685;28;20032;-64
2023/10/04 05:46:43;;;;;;;9.45;2.25;;;;;;;;;;2100812;28;20028;-64
2023/10/04 05:48:05;;;;;;;5.25;1.80;;;;;;;;;;2099934;28;20032;-64
2023/10/04 05:49:26;;;;;;;7.60;2.88;;;;;;;;;;2100124;28;20040;-63
2023/10/04 05:50:45;;;;;;;10.23;2.30;;;;;;;;;;2101255;28;20028;-64
2023/10/04 05:52:04;;;;;;;3.95;2.15;;;;;;;;;;2100922;28;20485;-64
2023/10/04 05:53:23;;;;;;;8.93;2.65;;;;;;;;;;2100810;28;20128;-64
2023/10/04 05:54:42;;;;;;;5.82;2.47;;;;;;;;;;2100717;28;20111;-64
2023/10/04 05:56:01;;;;;;;6.47;2.20;;;;;;;;;;2100423;28;20024;-64
2023/10/04 05:57:20;;;;;;;6.88;2.55;;;;;;;;;;2099848;28;20036;-63
2023/10/04 05:58:39;;;;;;;6.38;2.35;;;;;;;;;;2101052;28;20060;-63
2023/10/04 05:59:58;;;;;;;10.23;2.17;;;;;;;;;;2101257;28;20469;-64
2023/10/04 06:01:19;;;;;;;4.13;2.20;;;;;;;;;;2100539;28;20500;-63
2023/10/04 06:02:38;;;;;;;8.00;2.28;;;;;;;;;;2101238;28;20028;-63
2023/10/04 06:03:58;;;;;;;7.22;2.53;;;;;;;;;;2100347;28;20036;-63
2023/10/04 06:05:19;;;;;;;9.63;2.25;;;;;;;;;;2101104;28;20322;-63
2023/10/04 06:06:39;;;;;;;12.43;2.38;;;;;;;;;;2101944;28;20476;-63
2023/10/04 06:07:59;;;;;;;5.63;2.45;;;;;;;;;;2101013;28;20031;-63
2023/10/04 06:09:27;;;;;;;13.05;2.63;;;;;;;;;;2100952;28;20381;-63
2023/10/04 06:10:51;;;;;;;7.65;2.17;;;;;;;;;;2101896;28;20040;-63
2023/10/04 06:12:11;;;;;;;8.05;2.08;;;;;;;;;;2101296;28;20435;-63
2023/10/04 06:13:30;;;;;;;9.15;1.73;;;;;;;;;;2101448;28;20628;-63
2023/10/04 06:14:49;;;;;;;8.00;2.05;;;;;;;;;;2100793;28;20032;-63
2023/10/04 06:16:11;;;;;;;4.63;2.00;;;;;;;;;;2100598;28;20028;-63
2023/10/04 06:17:31;;;;;;;6.35;2.30;;;;;;;;;;2101190;28;21446;-66
2023/10/04 06:18:51;;;;;;;6.30;2.05;;;;;;;;;;2101322;28;20115;-63
2023/10/04 06:20:23;;;;;;;7.85;2.65;;;;;;;;;;2101416;28;20044;-63
2023/10/04 06:21:44;;;;;;;4.72;2.22;;;;;;;;;;2100701;28;20027;-64
2023/10/04 06:23:07;;;;;;;7.72;2.05;;;;;;;;;;2101097;28;20396;-63
2023/10/04 06:24:26;;;;;;;9.25;2.20;;;;;;;;;;2100942;28;20039;-64
2023/10/04 06:25:52;;;;;;;7.28;2.10;;;;;;;;;;2103255;28;20450;-63
2023/10/04 06:27:11;;;;;;;7.25;2.30;;;;;;;;;;2102241;28;20035;-63
2023/10/04 06:28:30;;;;;;;8.73;2.17;;;;;;;;;;2101398;28;20028;-65
2023/10/04 06:29:50;;;;;;;8.02;2.00;;;;;;;;;;2102071;28;20438;-63
2023/10/04 06:31:10;;;;;;;4.82;2.17;;;;;;;;;;2102340;28;20039;-66
2023/10/04 06:32:29;;;;;;;8.52;2.55;;;;;;;;;;2101237;28;20036;-64
2023/10/04 06:33:53;;;;;;;7.68;2.17;;;;;;;;;;2100480;28;20098;-63
2023/10/04 06:35:12;;;;;;;6.35;1.83;;;;;;;;;;2101142;28;20024;-63
2023/10/04 06:36:31;;;;;;;7.13;2.38;;;;;;;;;;2099600;28;20043;-63
2023/10/04 06:37:54;;;;;;;8.48;2.25;;;;;;;;;;2100418;28;20040;-63
2023/10/04 06:39:14;;;;;;;6.93;2.10;;;;;;;;;;2101014;28;20080;-64
2023/10/04 06:40:34;;;;;;;5.88;2.17;;;;;;;;;;2101026;28;20110;-63
2023/10/04 06:41:53;;;;;;;4.55;1.90;;;;;;;;;;2099398;28;20032;-63
2023/10/04 06:43:14;;;;;;;7.10;2.17;;;;;;;;;;2102357;28;20045;-63
2023/10/04 06:44:33;;;;;;;7.32;2.30;;;;;;;;;;2099828;28;20032;-63
2023/10/04 06:45:52;;;;;;;9.52;2.03;;;;;;;;;;2100820;28;20136;-63
2023/10/04 06:47:12;;;;;;;8.05;2.08;;;;;;;;;;2100846;28;20028;-64
2023/10/04 06:48:32;;;;;;;7.22;2.05;;;;;;;;;;2099714;28;20028;-64
2023/10/04 06:49:51;;;;;;;6.03;1.77;;;;;;;;;;2102872;28;20417;-63
2023/10/04 06:51:10;;;;;;;7.22;2.88;;;;;;;;;;2102119;28;20032;-63
2023/10/04 06:52:29;;;;;;;6.25;2.10;;;;;;;;;;2101517;28;20563;-63
2023/10/04 06:53:48;;;;;;;6.90;2.10;;;;;;;;;;2098473;28;20028;-64
2023/10/04 06:55:08;;;;;;;8.80;2.67;;;;;;;;;;2099815;28;20028;-63
2023/10/04 06:56:27;;;;;;;7.95;1.83;;;;;;;;;;2101112;28;20043;-64
2023/10/04 06:57:47;;;;;;;10.23;2.10;;;;;;;;;;2101310;28;20020;-63
2023/10/04 06:59:07;;;;;;;9.13;2.47;;;;;;;;;;2100854;28;20040;-64
2023/10/04 07:00:30;;;;;;;8.05;2.20;;;;;;;;;;2098716;28;20158;-64
2023/10/04 07:01:49;;;;;;;10.27;1.85;;;;;;;;;;2101321;28;20040;-64
2023/10/04 07:03:08;;;;;;;6.15;2.28;;;;;;;;;;2100092;28;20572;-64
2023/10/04 07:04:27;;;;;;;4.65;2.15;;;;;;;;;;2100344;28;20071;-63
2023/10/04 07:05:47;;;;;;;6.30;1.98;;;;;;;;;;2101051;28;20036;-64
2023/10/04 07:07:06;;;;;;;7.35;2.67;;;;;;;;;;2101960;28;20028;-64
2023/10/04 07:08:32;;;;;;;11.35;2.60;;;;;;;;;;2099688;28;20032;-63
2023/10/04 07:09:53;;;;;;;12.52;2.40;;;;;;;;;;2100291;28;20785;-63
2023/10/04 07:11:13;;;;;;;5.68;1.88;;;;;;;;;;2099366;28;20150;-63
2023/10/04 07:12:33;;;;;;;9.43;2.53;;;;;;;;;;2101410;28;20489;-64
2023/10/04 07:13:52;;;;;;;6.38;1.73;;;;;;;;;;2102358;28;20040;-63
2023/10/04 07:15:12;;;;;;;6.38;1.90;;;;;;;;;;2100595;28;20054;-64
2023/10/04 07:16:31;;;;;;;10.65;2.10;;;;;;;;;;2100116;28;20028;-63
2023/10/04 07:17:51;;;;;;;9.25;2.67;;;;;;;;;;2101125;28;20036;-64
2023/10/04 07:19:11;;;;;;;7.80;2.30;;;;;;;;;;2101522;28;20032;-63
2023/10/04 07:20:30;;;;;;;9.38;2.40;;;;;;;;;;2100034;28;20119;-63
2023/10/04 07:21:49;;;;;;;4.53;2.33;;;;;;;;;;2100257;28;20036;-64
2023/10/04 07:23:10;;;;;;;8.85;1.90;;;;;;;;;;2101089;28;20024;-63
2023/10/04 07:24:32;;;;;;;3.63;1.80;;;;;;;;;;2100681;28;20485;-63
2023/10/04 07:25:51;;;;;;;8.80;2.10;;;;;;;;;;2101326;28;20032;-64
2023/10/04 07:27:10;;;;;;;6.15;1.70;;;;;;;;;;2100482;28;20036;-63
2023/10/04 07:28:30;;;;;;;8.18;2.20;;;;;;;;;;2099649;28;20036;-63
2023/10/04 07:29:50;;;;;;;8.27;1.90;;;;;;;;;;2099150;28;20454;-64
2023/10/04 07:31:10;;;;;;;8.32;1.90;;;;;;;;;;2100624;28;20017;-64
2023/10/04 07:32:29;;;;;;;11.48;2.53;;;;;;;;;;2101248;28;20485;-64
2023/10/04 07:33:48;;;;;;;11.02;2.60;;;;;;;;;;2101251;28;20031;-64
2023/10/04 07:35:08;;;;;;;5.78;2.05;;;;;;;;;;2101543;28;20032;-63
2023/10/04 07:36:28;;;;;;;9.88;2.20;;;;;;;;;;2101031;28;20060;-64
2023/10/04 07:37:47;;;;;;;3.83;1.45;;;;;;;;;;2100885;28;20044;-63
2023/10/04 07:39:06;;;;;;;6.15;1.70;;;;;;;;;;2100497;28;20040;-64
2023/10/04 07:40:26;;;;;;;6.65;2.00;;;;;;;;;;2101948;28;20028;-63
2023/10/04 07:41:44;;;;;;;6.90;2.20;;;;;;;;;;2100214;28;20036;-63
2023/10/04 07:43:03;;;;;;;5.90;1.85;;;;;;;;;;2101235;28;20039;-64
2023/10/04 07:44:24;;;;;;;4.47;1.70;;;;;;;;;;2101623;28;20036;-63
2023/10/04 07:45:45;;;;;;;4.93;1.70;;;;;;;;;;2103461;28;20041;-63
2023/10/04 07:47:04;;;;;;;8.00;1.88;;;;;;;;;;2103717;28;20414;-63
2023/10/04 07:48:24;;;;;;;7.55;1.60;;;;;;;;;;2102459;28;20032;-64
2023/10/04 07:49:42;;;;;;;7.45;2.08;;;;;;;;;;2102015;28;20480;-62
2023/10/04 07:51:01;;;;;;;7.72;2.10;;;;;;;;;;2103286;28;20070;-64
2023/10/04 07:52:20;;;;;;;7.50;1.77;;;;;;;;;;2102729;28;20032;-62
2023/10/04 07:53:39;;;;;;;6.47;2.20;;;;;;;;;;2102859;28;20480;-63
2023/10/04 07:54:59;;;;;;;6.28;2.10;;;;;;;;;;2111620;27;20122;-62
2023/10/04 07:56:18;;;;;;;5.47;1.85;;;;;;;;;;2105991;28;20115;-62
2023/10/04 07:57:41;;;;;;;6.82;1.73;;;;;;;;;;2102564;28;20036;-62
2023/10/04 07:59:01;;;;;;;;;;;;;;;;;;2101286;28;20424;-62
2023/10/04 08:00:20;;;;;;;8.13;2.38;;;;;;;;;;2103776;28;19904;-62
2023/10/04 08:01:39;;;;;;;6.95;1.90;;;;;;;;;;2103296;28;20040;-62
2023/10/04 08:02:59;;;;;;;3.35;1.50;;;;;;;;;;2102838;28;20020;-62